< < Back
Terminal Aerodrome Forecast


Current Version              Previous Versions:   1  2  3  4  5  6  7  8  9  

Terminal Aerodrome Forecast

987
FTUS44 KMRX 031123
TAFTYS
TAF
KTYS 031123Z 0312/0412 03005KT P6SM FEW040 SCT150 BKN200=

Latest METAR

912
SAUS80 KWBC 040600 RRB
MTRTYS
METAR KTYS 040553Z 00000KT 10SM CLR 22/21 A2998 RMK AO2 SLP139 T02220211
10283 20222 58001 $


USA.gov is the U.S. government's official web portal to all federal, state and local government web resources and services.